sensor_id;sensor_type;location;lat;lon;timestamp;P1;durP1;ratioP1;P2;durP2;ratioP2
21593;SDS011;10959;51.328;7.322;2023-03-14T00:01:44;3.83;;;1.23;;
21593;SDS011;10959;51.328;7.322;2023-03-14T00:04:11;3.53;;;1.30;;
21593;SDS011;10959;51.328;7.322;2023-03-14T00:06:37;4.20;;;1.27;;
21593;SDS011;10959;51.328;7.322;2023-03-14T00:09:04;3.07;;;1.33;;
21593;SDS011;10959;51.328;7.322;2023-03-14T00:11:30;2.07;;;1.30;;
21593;SDS011;10959;51.328;7.322;2023-03-14T00:13:57;4.93;;;1.37;;
21593;SDS011;10959;51.328;7.322;2023-03-14T00:16:24;1.83;;;1.20;;
21593;SDS011;10959;51.328;7.322;2023-03-14T00:18:53;2.77;;;1.10;;
21593;SDS011;10959;51.328;7.322;2023-03-14T00:21:19;2.63;;;1.03;;
21593;SDS011;10959;51.328;7.322;2023-03-14T00:23:46;2.13;;;0.90;;
21593;SDS011;10959;51.328;7.322;2023-03-14T00:26:13;3.13;;;1.00;;
21593;SDS011;10959;51.328;7.322;2023-03-14T00:28:40;3.93;;;1.47;;
21593;SDS011;10959;51.328;7.322;2023-03-14T00:31:09;1.83;;;1.23;;
21593;SDS011;10959;51.328;7.322;2023-03-14T00:33:37;5.30;;;2.17;;
21593;SDS011;10959;51.328;7.322;2023-03-14T00:36:06;3.57;;;1.50;;
21593;SDS011;10959;51.328;7.322;2023-03-14T00:38:34;4.47;;;1.10;;
21593;SDS011;10959;51.328;7.322;2023-03-14T00:41:02;4.30;;;1.20;;
21593;SDS011;10959;51.328;7.322;2023-03-14T00:43:30;3.73;;;1.37;;
21593;SDS011;10959;51.328;7.322;2023-03-14T00:45:56;4.87;;;1.50;;
21593;SDS011;10959;51.328;7.322;2023-03-14T00:48:23;4.13;;;1.17;;
21593;SDS011;10959;51.328;7.322;2023-03-14T00:50:50;2.47;;;0.80;;
21593;SDS011;10959;51.328;7.322;2023-03-14T00:53:18;3.53;;;1.40;;
21593;SDS011;10959;51.328;7.322;2023-03-14T00:55:44;3.13;;;1.50;;
21593;SDS011;10959;51.328;7.322;2023-03-14T00:58:12;2.60;;;1.07;;
21593;SDS011;10959;51.328;7.322;2023-03-14T01:00:40;5.07;;;1.20;;
21593;SDS011;10959;51.328;7.322;2023-03-14T01:03:07;2.80;;;1.53;;
21593;SDS011;10959;51.328;7.322;2023-03-14T01:05:34;5.17;;;1.27;;
21593;SDS011;10959;51.328;7.322;2023-03-14T01:08:00;3.93;;;1.47;;
21593;SDS011;10959;51.328;7.322;2023-03-14T01:10:28;2.60;;;1.17;;
21593;SDS011;10959;51.328;7.322;2023-03-14T01:12:55;4.90;;;1.20;;
21593;SDS011;10959;51.328;7.322;2023-03-14T01:15:22;6.20;;;1.30;;
21593;SDS011;10959;51.328;7.322;2023-03-14T01:17:48;3.57;;;1.37;;
21593;SDS011;10959;51.328;7.322;2023-03-14T01:20:15;4.03;;;1.60;;
21593;SDS011;10959;51.328;7.322;2023-03-14T01:22:42;6.80;;;2.00;;
21593;SDS011;10959;51.328;7.322;2023-03-14T01:25:10;4.23;;;1.57;;
21593;SDS011;10959;51.328;7.322;2023-03-14T01:27:42;2.43;;;1.10;;
21593;SDS011;10959;51.328;7.322;2023-03-14T01:30:10;3.47;;;1.07;;
21593;SDS011;10959;51.328;7.322;2023-03-14T01:32:37;3.70;;;1.30;;
21593;SDS011;10959;51.328;7.322;2023-03-14T01:35:04;2.37;;;1.10;;
21593;SDS011;10959;51.328;7.322;2023-03-14T01:37:31;1.83;;;0.97;;
21593;SDS011;10959;51.328;7.322;2023-03-14T01:39:57;1.87;;;0.90;;
21593;SDS011;10959;51.328;7.322;2023-03-14T01:42:24;5.43;;;0.90;;
21593;SDS011;10959;51.328;7.322;2023-03-14T01:44:53;3.93;;;1.00;;
21593;SDS011;10959;51.328;7.322;2023-03-14T01:47:21;2.57;;;0.80;;
21593;SDS011;10959;51.328;7.322;2023-03-14T01:49:48;2.57;;;0.77;;
21593;SDS011;10959;51.328;7.322;2023-03-14T01:52:20;4.70;;;0.97;;
21593;SDS011;10959;51.328;7.322;2023-03-14T01:54:51;4.40;;;1.10;;
21593;SDS011;10959;51.328;7.322;2023-03-14T01:57:20;3.40;;;0.83;;
21593;SDS011;10959;51.328;7.322;2023-03-14T01:59:53;2.87;;;1.03;;
21593;SDS011;10959;51.328;7.322;2023-03-14T02:02:23;2.10;;;0.90;;
21593;SDS011;10959;51.328;7.322;2023-03-14T02:04:52;3.43;;;1.00;;
21593;SDS011;10959;51.328;7.322;2023-03-14T02:07:21;2.27;;;0.70;;
21593;SDS011;10959;51.328;7.322;2023-03-14T02:09:51;4.33;;;1.20;;
21593;SDS011;10959;51.328;7.322;2023-03-14T02:12:20;4.70;;;1.40;;
21593;SDS011;10959;51.328;7.322;2023-03-14T02:14:48;3.37;;;1.00;;
21593;SDS011;10959;51.328;7.322;2023-03-14T02:17:16;4.60;;;1.17;;
21593;SDS011;10959;51.328;7.322;2023-03-14T02:19:50;4.83;;;1.43;;
21593;SDS011;10959;51.328;7.322;2023-03-14T02:22:30;5.27;;;1.50;;
21593;SDS011;10959;51.328;7.322;2023-03-14T02:24:59;4.30;;;1.00;;
21593;SDS011;10959;51.328;7.322;2023-03-14T02:27:31;6.50;;;1.20;;
21593;SDS011;10959;51.328;7.322;2023-03-14T02:29:59;4.67;;;1.27;;
21593;SDS011;10959;51.328;7.322;2023-03-14T02:32:28;5.07;;;1.70;;
21593;SDS011;10959;51.328;7.322;2023-03-14T02:34:58;4.63;;;1.27;;
21593;SDS011;10959;51.328;7.322;2023-03-14T02:37:30;4.37;;;1.40;;
21593;SDS011;10959;51.328;7.322;2023-03-14T02:40:01;5.00;;;1.40;;
21593;SDS011;10959;51.328;7.322;2023-03-14T02:42:29;4.53;;;1.17;;
21593;SDS011;10959;51.328;7.322;2023-03-14T02:44:59;3.90;;;1.20;;
21593;SDS011;10959;51.328;7.322;2023-03-14T02:47:48;3.47;;;1.00;;
21593;SDS011;10959;51.328;7.322;2023-03-14T02:50:20;4.03;;;1.20;;
21593;SDS011;10959;51.328;7.322;2023-03-14T02:52:48;5.43;;;0.90;;
21593;SDS011;10959;51.328;7.322;2023-03-14T02:55:19;4.30;;;1.37;;
21593;SDS011;10959;51.328;7.322;2023-03-14T02:57:46;4.80;;;1.33;;
21593;SDS011;10959;51.328;7.322;2023-03-14T03:00:14;2.93;;;0.97;;
21593;SDS011;10959;51.328;7.322;2023-03-14T03:02:41;2.17;;;1.07;;
21593;SDS011;10959;51.328;7.322;2023-03-14T03:05:08;2.67;;;1.10;;
21593;SDS011;10959;51.328;7.322;2023-03-14T03:07:34;4.83;;;1.53;;
21593;SDS011;10959;51.328;7.322;2023-03-14T03:10:01;2.57;;;1.57;;
21593;SDS011;10959;51.328;7.322;2023-03-14T03:12:28;4.10;;;1.30;;
21593;SDS011;10959;51.328;7.322;2023-03-14T03:14:54;4.00;;;1.30;;
21593;SDS011;10959;51.328;7.322;2023-03-14T03:17:22;4.27;;;1.30;;
21593;SDS011;10959;51.328;7.322;2023-03-14T03:19:48;3.10;;;1.13;;
21593;SDS011;10959;51.328;7.322;2023-03-14T03:22:15;3.33;;;1.33;;
21593;SDS011;10959;51.328;7.322;2023-03-14T03:24:41;3.07;;;1.33;;
21593;SDS011;10959;51.328;7.322;2023-03-14T03:27:09;1.83;;;0.93;;
21593;SDS011;10959;51.328;7.322;2023-03-14T03:29:36;3.13;;;1.10;;
21593;SDS011;10959;51.328;7.322;2023-03-14T03:32:02;2.27;;;1.33;;
21593;SDS011;10959;51.328;7.322;2023-03-14T03:34:30;4.53;;;1.33;;
21593;SDS011;10959;51.328;7.322;2023-03-14T03:36:56;3.17;;;0.90;;
21593;SDS011;10959;51.328;7.322;2023-03-14T03:39:23;7.37;;;1.20;;
21593;SDS011;10959;51.328;7.322;2023-03-14T03:41:50;5.03;;;0.90;;
21593;SDS011;10959;51.328;7.322;2023-03-14T03:44:16;3.40;;;1.10;;
21593;SDS011;10959;51.328;7.322;2023-03-14T03:46:42;2.77;;;1.00;;
21593;SDS011;10959;51.328;7.322;2023-03-14T03:49:09;4.60;;;1.00;;
21593;SDS011;10959;51.328;7.322;2023-03-14T03:51:37;4.07;;;1.20;;
21593;SDS011;10959;51.328;7.322;2023-03-14T03:54:03;4.50;;;1.10;;
21593;SDS011;10959;51.328;7.322;2023-03-14T03:56:30;4.23;;;1.40;;
21593;SDS011;10959;51.328;7.322;2023-03-14T03:58:57;5.80;;;1.23;;
21593;SDS011;10959;51.328;7.322;2023-03-14T04:01:23;4.07;;;1.10;;
21593;SDS011;10959;51.328;7.322;2023-03-14T04:03:50;4.33;;;1.30;;
21593;SDS011;10959;51.328;7.322;2023-03-14T04:06:16;4.93;;;1.30;;
21593;SDS011;10959;51.328;7.322;2023-03-14T04:08:44;5.17;;;1.20;;
21593;SDS011;10959;51.328;7.322;2023-03-14T04:11:10;3.43;;;1.30;;
21593;SDS011;10959;51.328;7.322;2023-03-14T04:13:37;5.23;;;1.07;;
21593;SDS011;10959;51.328;7.322;2023-03-14T04:16:08;1.83;;;1.00;;
21593;SDS011;10959;51.328;7.322;2023-03-14T04:18:40;3.70;;;1.20;;
21593;SDS011;10959;51.328;7.322;2023-03-14T04:21:06;4.43;;;1.23;;
21593;SDS011;10959;51.328;7.322;2023-03-14T04:23:33;3.67;;;1.20;;
21593;SDS011;10959;51.328;7.322;2023-03-14T04:26:00;5.00;;;1.40;;
21593;SDS011;10959;51.328;7.322;2023-03-14T04:28:27;3.50;;;1.23;;
21593;SDS011;10959;51.328;7.322;2023-03-14T04:30:53;2.17;;;1.17;;
21593;SDS011;10959;51.328;7.322;2023-03-14T04:33:20;1.97;;;1.10;;
21593;SDS011;10959;51.328;7.322;2023-03-14T04:35:46;3.40;;;1.40;;
21593;SDS011;10959;51.328;7.322;2023-03-14T04:38:15;3.53;;;1.20;;
21593;SDS011;10959;51.328;7.322;2023-03-14T04:40:42;4.17;;;1.63;;
21593;SDS011;10959;51.328;7.322;2023-03-14T04:43:11;3.00;;;1.47;;
21593;SDS011;10959;51.328;7.322;2023-03-14T04:45:40;4.37;;;1.40;;
21593;SDS011;10959;51.328;7.322;2023-03-14T04:48:07;3.80;;;1.50;;
21593;SDS011;10959;51.328;7.322;2023-03-14T04:50:34;4.90;;;1.67;;
21593;SDS011;10959;51.328;7.322;2023-03-14T04:53:00;4.33;;;1.80;;
21593;SDS011;10959;51.328;7.322;2023-03-14T04:55:27;6.13;;;1.17;;
21593;SDS011;10959;51.328;7.322;2023-03-14T04:57:53;6.33;;;1.60;;
21593;SDS011;10959;51.328;7.322;2023-03-14T05:00:21;3.87;;;1.40;;
21593;SDS011;10959;51.328;7.322;2023-03-14T05:02:48;6.00;;;1.70;;
21593;SDS011;10959;51.328;7.322;2023-03-14T05:05:14;5.30;;;1.47;;
21593;SDS011;10959;51.328;7.322;2023-03-14T05:07:41;4.60;;;1.37;;
21593;SDS011;10959;51.328;7.322;2023-03-14T05:10:08;4.17;;;1.10;;
21593;SDS011;10959;51.328;7.322;2023-03-14T05:12:35;7.00;;;1.60;;
21593;SDS011;10959;51.328;7.322;2023-03-14T05:15:02;6.73;;;1.70;;
21593;SDS011;10959;51.328;7.322;2023-03-14T05:17:30;2.40;;;1.47;;
21593;SDS011;10959;51.328;7.322;2023-03-14T05:19:58;3.10;;;1.43;;
21593;SDS011;10959;51.328;7.322;2023-03-14T05:22:25;2.30;;;0.90;;
21593;SDS011;10959;51.328;7.322;2023-03-14T05:24:51;5.27;;;1.17;;
21593;SDS011;10959;51.328;7.322;2023-03-14T05:27:18;4.30;;;1.20;;
21593;SDS011;10959;51.328;7.322;2023-03-14T05:29:45;3.83;;;1.10;;
21593;SDS011;10959;51.328;7.322;2023-03-14T05:32:13;3.27;;;1.10;;
21593;SDS011;10959;51.328;7.322;2023-03-14T05:34:40;2.37;;;1.37;;
21593;SDS011;10959;51.328;7.322;2023-03-14T05:37:07;3.93;;;1.20;;
21593;SDS011;10959;51.328;7.322;2023-03-14T05:39:33;5.40;;;1.10;;
21593;SDS011;10959;51.328;7.322;2023-03-14T05:42:00;4.27;;;1.20;;
21593;SDS011;10959;51.328;7.322;2023-03-14T05:44:26;3.67;;;1.40;;
21593;SDS011;10959;51.328;7.322;2023-03-14T05:46:52;3.90;;;1.30;;
21593;SDS011;10959;51.328;7.322;2023-03-14T05:49:19;3.83;;;0.97;;
21593;SDS011;10959;51.328;7.322;2023-03-14T05:51:47;3.53;;;1.20;;
21593;SDS011;10959;51.328;7.322;2023-03-14T05:54:13;2.87;;;1.13;;
21593;SDS011;10959;51.328;7.322;2023-03-14T05:56:40;2.93;;;1.40;;
21593;SDS011;10959;51.328;7.322;2023-03-14T05:59:06;2.77;;;1.10;;
21593;SDS011;10959;51.328;7.322;2023-03-14T06:01:34;2.97;;;1.17;;
21593;SDS011;10959;51.328;7.322;2023-03-14T06:04:00;3.63;;;1.10;;
21593;SDS011;10959;51.328;7.322;2023-03-14T06:06:27;2.80;;;1.07;;
21593;SDS011;10959;51.328;7.322;2023-03-14T06:08:54;2.67;;;1.10;;
21593;SDS011;10959;51.328;7.322;2023-03-14T06:11:21;3.80;;;1.43;;
21593;SDS011;10959;51.328;7.322;2023-03-14T06:13:47;3.70;;;1.40;;
21593;SDS011;10959;51.328;7.322;2023-03-14T06:16:14;3.60;;;1.50;;
21593;SDS011;10959;51.328;7.322;2023-03-14T06:18:40;3.83;;;1.03;;
21593;SDS011;10959;51.328;7.322;2023-03-14T06:21:07;2.67;;;1.07;;
21593;SDS011;10959;51.328;7.322;2023-03-14T06:23:34;1.80;;;0.80;;
21593;SDS011;10959;51.328;7.322;2023-03-14T06:26:01;3.03;;;1.40;;
21593;SDS011;10959;51.328;7.322;2023-03-14T06:28:28;2.37;;;1.00;;
21593;SDS011;10959;51.328;7.322;2023-03-14T06:30:54;2.50;;;0.90;;
21593;SDS011;10959;51.328;7.322;2023-03-14T06:33:21;1.40;;;0.73;;
21593;SDS011;10959;51.328;7.322;2023-03-14T06:35:47;1.20;;;0.70;;
21593;SDS011;10959;51.328;7.322;2023-03-14T06:38:13;0.90;;;0.60;;
21593;SDS011;10959;51.328;7.322;2023-03-14T06:40:40;2.60;;;0.70;;
21593;SDS011;10959;51.328;7.322;2023-03-14T06:43:08;1.80;;;0.70;;
21593;SDS011;10959;51.328;7.322;2023-03-14T06:45:34;1.43;;;0.60;;
21593;SDS011;10959;51.328;7.322;2023-03-14T06:48:00;1.00;;;0.60;;
21593;SDS011;10959;51.328;7.322;2023-03-14T06:50:27;1.03;;;0.53;;
21593;SDS011;10959;51.328;7.322;2023-03-14T06:52:54;2.50;;;0.43;;
21593;SDS011;10959;51.328;7.322;2023-03-14T06:55:20;0.83;;;0.60;;
21593;SDS011;10959;51.328;7.322;2023-03-14T06:57:47;0.93;;;0.47;;
21593;SDS011;10959;51.328;7.322;2023-03-14T07:00:15;1.47;;;0.50;;
21593;SDS011;10959;51.328;7.322;2023-03-14T07:02:42;1.60;;;1.00;;
21593;SDS011;10959;51.328;7.322;2023-03-14T07:05:08;2.70;;;1.40;;
21593;SDS011;10959;51.328;7.322;2023-03-14T07:07:35;3.53;;;1.40;;
21593;SDS011;10959;51.328;7.322;2023-03-14T07:10:02;4.00;;;2.83;;
21593;SDS011;10959;51.328;7.322;2023-03-14T07:12:28;3.87;;;3.20;;
21593;SDS011;10959;51.328;7.322;2023-03-14T07:14:55;1.43;;;1.10;;
21593;SDS011;10959;51.328;7.322;2023-03-14T07:17:23;1.83;;;0.90;;
21593;SDS011;10959;51.328;7.322;2023-03-14T07:19:49;1.80;;;0.63;;
21593;SDS011;10959;51.328;7.322;2023-03-14T07:22:16;1.70;;;0.70;;
21593;SDS011;10959;51.328;7.322;2023-03-14T07:24:42;1.40;;;0.43;;
21593;SDS011;10959;51.328;7.322;2023-03-14T07:27:09;2.10;;;0.57;;
21593;SDS011;10959;51.328;7.322;2023-03-14T07:29:35;0.97;;;0.40;;
21593;SDS011;10959;51.328;7.322;2023-03-14T07:32:01;1.13;;;0.60;;
21593;SDS011;10959;51.328;7.322;2023-03-14T07:34:29;1.43;;;0.70;;
21593;SDS011;10959;51.328;7.322;2023-03-14T07:36:56;0.47;;;0.30;;
21593;SDS011;10959;51.328;7.322;2023-03-14T07:39:22;1.97;;;0.50;;
21593;SDS011;10959;51.328;7.322;2023-03-14T07:41:49;0.67;;;0.37;;
21593;SDS011;10959;51.328;7.322;2023-03-14T07:44:15;1.33;;;0.50;;
21593;SDS011;10959;51.328;7.322;2023-03-14T07:46:42;0.80;;;0.50;;
21593;SDS011;10959;51.328;7.322;2023-03-14T07:49:08;1.57;;;0.50;;
21593;SDS011;10959;51.328;7.322;2023-03-14T07:51:36;0.60;;;0.37;;
21593;SDS011;10959;51.328;7.322;2023-03-14T07:54:02;0.67;;;0.53;;
21593;SDS011;10959;51.328;7.322;2023-03-14T07:56:29;0.63;;;0.43;;
21593;SDS011;10959;51.328;7.322;2023-03-14T07:58:56;1.63;;;0.80;;
21593;SDS011;10959;51.328;7.322;2023-03-14T08:01:22;1.33;;;0.87;;
21593;SDS011;10959;51.328;7.322;2023-03-14T08:03:49;1.33;;;0.90;;
21593;SDS011;10959;51.328;7.322;2023-03-14T08:06:15;1.33;;;0.93;;
21593;SDS011;10959;51.328;7.322;2023-03-14T08:08:43;1.20;;;1.03;;
21593;SDS011;10959;51.328;7.322;2023-03-14T08:11:10;1.17;;;1.07;;
21593;SDS011;10959;51.328;7.322;2023-03-14T08:13:36;2.63;;;1.20;;
21593;SDS011;10959;51.328;7.322;2023-03-14T08:16:03;3.30;;;1.30;;
21593;SDS011;10959;51.328;7.322;2023-03-14T08:18:30;1.50;;;1.20;;
21593;SDS011;10959;51.328;7.322;2023-03-14T08:20:56;2.50;;;1.10;;
21593;SDS011;10959;51.328;7.322;2023-03-14T08:23:23;1.33;;;1.23;;
21593;SDS011;10959;51.328;7.322;2023-03-14T08:25:51;1.43;;;1.17;;
21593;SDS011;10959;51.328;7.322;2023-03-14T08:28:18;1.73;;;1.20;;
21593;SDS011;10959;51.328;7.322;2023-03-14T08:30:45;2.40;;;1.03;;
21593;SDS011;10959;51.328;7.322;2023-03-14T08:33:11;0.90;;;0.90;;
21593;SDS011;10959;51.328;7.322;2023-03-14T08:35:38;2.13;;;0.60;;
21593;SDS011;10959;51.328;7.322;2023-03-14T08:38:04;1.60;;;1.07;;
21593;SDS011;10959;51.328;7.322;2023-03-14T08:40:31;1.70;;;0.73;;
21593;SDS011;10959;51.328;7.322;2023-03-14T08:42:58;1.27;;;0.70;;
21593;SDS011;10959;51.328;7.322;2023-03-14T08:45:25;1.43;;;1.00;;
21593;SDS011;10959;51.328;7.322;2023-03-14T08:47:52;2.43;;;1.00;;
21593;SDS011;10959;51.328;7.322;2023-03-14T08:50:18;4.97;;;1.00;;
21593;SDS011;10959;51.328;7.322;2023-03-14T08:52:45;1.30;;;1.00;;
21593;SDS011;10959;51.328;7.322;2023-03-14T08:55:11;1.03;;;0.97;;
21593;SDS011;10959;51.328;7.322;2023-03-14T08:57:38;1.20;;;1.10;;
21593;SDS011;10959;51.328;7.322;2023-03-14T09:00:06;1.20;;;1.10;;
21593;SDS011;10959;51.328;7.322;2023-03-14T09:02:37;1.20;;;1.10;;
21593;SDS011;10959;51.328;7.322;2023-03-14T09:05:04;1.57;;;1.27;;
21593;SDS011;10959;51.328;7.322;2023-03-14T09:07:31;2.53;;;1.70;;
21593;SDS011;10959;51.328;7.322;2023-03-14T09:09:57;1.70;;;1.07;;
21593;SDS011;10959;51.328;7.322;2023-03-14T09:12:24;3.07;;;1.10;;
21593;SDS011;10959;51.328;7.322;2023-03-14T09:14:50;1.57;;;1.20;;
21593;SDS011;10959;51.328;7.322;2023-03-14T09:17:18;1.77;;;1.37;;
21593;SDS011;10959;51.328;7.322;2023-03-14T09:19:45;4.27;;;1.70;;
21593;SDS011;10959;51.328;7.322;2023-03-14T09:22:11;1.10;;;1.00;;
21593;SDS011;10959;51.328;7.322;2023-03-14T09:24:37;1.47;;;1.37;;
21593;SDS011;10959;51.328;7.322;2023-03-14T09:27:04;2.07;;;1.23;;
21593;SDS011;10959;51.328;7.322;2023-03-14T09:29:30;1.20;;;1.10;;
21593;SDS011;10959;51.328;7.322;2023-03-14T09:31:57;1.30;;;1.10;;
21593;SDS011;10959;51.328;7.322;2023-03-14T09:34:26;2.03;;;1.00;;
21593;SDS011;10959;51.328;7.322;2023-03-14T09:36:52;0.60;;;0.60;;
21593;SDS011;10959;51.328;7.322;2023-03-14T09:39:19;0.93;;;0.60;;
21593;SDS011;10959;51.328;7.322;2023-03-14T09:41:46;1.23;;;0.50;;
21593;SDS011;10959;51.328;7.322;2023-03-14T09:44:15;0.60;;;0.60;;
21593;SDS011;10959;51.328;7.322;2023-03-14T09:46:47;0.63;;;0.40;;
21593;SDS011;10959;51.328;7.322;2023-03-14T09:49:17;0.50;;;0.40;;
21593;SDS011;10959;51.328;7.322;2023-03-14T09:51:49;0.97;;;0.50;;
21593;SDS011;10959;51.328;7.322;2023-03-14T09:54:24;1.03;;;0.80;;
21593;SDS011;10959;51.328;7.322;2023-03-14T09:56:57;0.77;;;0.40;;
21593;SDS011;10959;51.328;7.322;2023-03-14T09:59:23;0.37;;;0.27;;
21593;SDS011;10959;51.328;7.322;2023-03-14T10:01:51;0.40;;;0.40;;
21593;SDS011;10959;51.328;7.322;2023-03-14T10:04:20;1.23;;;0.20;;
21593;SDS011;10959;51.328;7.322;2023-03-14T10:06:50;0.50;;;0.40;;
21593;SDS011;10959;51.328;7.322;2023-03-14T10:09:17;0.77;;;0.40;;
21593;SDS011;10959;51.328;7.322;2023-03-14T10:11:50;1.33;;;0.60;;
21593;SDS011;10959;51.328;7.322;2023-03-14T10:14:28;1.00;;;0.53;;
21593;SDS011;10959;51.328;7.322;2023-03-14T10:16:58;0.70;;;0.50;;
21593;SDS011;10959;51.328;7.322;2023-03-14T10:19:31;1.30;;;0.97;;
21593;SDS011;10959;51.328;7.322;2023-03-14T10:22:00;1.43;;;1.00;;
21593;SDS011;10959;51.328;7.322;2023-03-14T10:24:28;3.10;;;1.70;;
21593;SDS011;10959;51.328;7.322;2023-03-14T10:26:57;1.70;;;1.60;;
21593;SDS011;10959;51.328;7.322;2023-03-14T10:29:27;1.90;;;1.70;;
21593;SDS011;10959;51.328;7.322;2023-03-14T10:31:54;1.70;;;1.20;;
21593;SDS011;10959;51.328;7.322;2023-03-14T10:34:24;2.10;;;1.60;;
21593;SDS011;10959;51.328;7.322;2023-03-14T10:36:53;1.53;;;1.43;;
21593;SDS011;10959;51.328;7.322;2023-03-14T10:39:25;1.30;;;1.10;;
21593;SDS011;10959;51.328;7.322;2023-03-14T10:41:55;2.03;;;0.93;;
21593;SDS011;10959;51.328;7.322;2023-03-14T10:44:30;1.40;;;0.80;;
21593;SDS011;10959;51.328;7.322;2023-03-14T10:46:58;1.10;;;1.00;;
21593;SDS011;10959;51.328;7.322;2023-03-14T10:49:27;1.20;;;0.63;;
21593;SDS011;10959;51.328;7.322;2023-03-14T10:51:55;1.13;;;1.03;;
21593;SDS011;10959;51.328;7.322;2023-03-14T10:54:21;1.00;;;0.90;;
21593;SDS011;10959;51.328;7.322;2023-03-14T10:56:57;1.17;;;1.07;;
21593;SDS011;10959;51.328;7.322;2023-03-14T10:59:25;2.00;;;1.53;;
21593;SDS011;10959;51.328;7.322;2023-03-14T11:01:55;1.80;;;1.47;;
21593;SDS011;10959;51.328;7.322;2023-03-14T11:04:39;1.90;;;1.47;;
21593;SDS011;10959;51.328;7.322;2023-03-14T11:07:16;2.30;;;1.43;;
21593;SDS011;10959;51.328;7.322;2023-03-14T11:09:50;1.53;;;0.87;;
21593;SDS011;10959;51.328;7.322;2023-03-14T11:12:31;3.00;;;1.20;;
21593;SDS011;10959;51.328;7.322;2023-03-14T11:15:05;1.80;;;1.10;;
21593;SDS011;10959;51.328;7.322;2023-03-14T11:17:41;1.37;;;0.90;;
21593;SDS011;10959;51.328;7.322;2023-03-14T11:20:23;1.53;;;1.10;;
21593;SDS011;10959;51.328;7.322;2023-03-14T11:22:59;2.23;;;1.27;;
21593;SDS011;10959;51.328;7.322;2023-03-14T11:25:31;1.27;;;1.10;;
21593;SDS011;10959;51.328;7.322;2023-03-14T11:28:03;1.60;;;1.07;;
21593;SDS011;10959;51.328;7.322;2023-03-14T11:30:37;2.23;;;1.30;;
21593;SDS011;10959;51.328;7.322;2023-03-14T11:33:08;1.67;;;1.10;;
21593;SDS011;10959;51.328;7.322;2023-03-14T11:35:41;2.10;;;1.20;;
21593;SDS011;10959;51.328;7.322;2023-03-14T11:38:16;2.23;;;1.20;;
21593;SDS011;10959;51.328;7.322;2023-03-14T11:40:51;2.23;;;1.40;;
21593;SDS011;10959;51.328;7.322;2023-03-14T11:43:24;2.60;;;1.60;;
21593;SDS011;10959;51.328;7.322;2023-03-14T11:45:54;1.60;;;1.20;;
21593;SDS011;10959;51.328;7.322;2023-03-14T11:48:29;1.70;;;1.40;;
21593;SDS011;10959;51.328;7.322;2023-03-14T11:51:04;2.43;;;1.30;;
21593;SDS011;10959;51.328;7.322;2023-03-14T11:53:39;2.07;;;1.00;;
21593;SDS011;10959;51.328;7.322;2023-03-14T11:56:14;1.33;;;0.80;;
21593;SDS011;10959;51.328;7.322;2023-03-14T11:58:48;3.20;;;1.00;;
21593;SDS011;10959;51.328;7.322;2023-03-14T12:01:20;1.50;;;0.57;;
21593;SDS011;10959;51.328;7.322;2023-03-14T12:03:52;1.10;;;0.57;;
21593;SDS011;10959;51.328;7.322;2023-03-14T12:06:27;2.10;;;0.70;;
21593;SDS011;10959;51.328;7.322;2023-03-14T12:08:58;2.10;;;0.80;;
21593;SDS011;10959;51.328;7.322;2023-03-14T12:11:31;0.83;;;0.70;;
21593;SDS011;10959;51.328;7.322;2023-03-14T12:14:03;1.40;;;0.73;;
21593;SDS011;10959;51.328;7.322;2023-03-14T12:16:43;1.40;;;1.10;;
21593;SDS011;10959;51.328;7.322;2023-03-14T12:22:12;2.60;;;0.87;;
21593;SDS011;10959;51.328;7.322;2023-03-14T12:24:48;1.37;;;0.70;;
21593;SDS011;10959;51.328;7.322;2023-03-14T12:30:22;2.13;;;0.80;;
21593;SDS011;10959;51.328;7.322;2023-03-14T12:35:59;2.03;;;1.10;;
21593;SDS011;10959;51.328;7.322;2023-03-14T12:41:27;2.93;;;1.17;;
21593;SDS011;10959;51.328;7.322;2023-03-14T12:50:12;3.27;;;0.93;;
21593;SDS011;10959;51.328;7.322;2023-03-14T12:52:43;2.40;;;2.10;;
21593;SDS011;10959;51.328;7.322;2023-03-14T12:55:24;1.60;;;0.80;;
21593;SDS011;10959;51.328;7.322;2023-03-14T12:57:59;1.40;;;0.80;;
21593;SDS011;10959;51.328;7.322;2023-03-14T13:00:34;1.87;;;0.60;;
21593;SDS011;10959;51.328;7.322;2023-03-14T13:03:12;2.07;;;0.73;;
21593;SDS011;10959;51.328;7.322;2023-03-14T13:05:52;1.87;;;1.03;;
21593;SDS011;10959;51.328;7.322;2023-03-14T13:08:32;2.93;;;1.03;;
21593;SDS011;10959;51.328;7.322;2023-03-14T13:11:01;1.03;;;0.70;;
21593;SDS011;10959;51.328;7.322;2023-03-14T13:13:30;1.50;;;1.00;;
21593;SDS011;10959;51.328;7.322;2023-03-14T13:16:00;3.50;;;1.63;;
21593;SDS011;10959;51.328;7.322;2023-03-14T13:18:29;3.13;;;1.23;;
21593;SDS011;10959;51.328;7.322;2023-03-14T13:21:02;3.43;;;1.80;;
21593;SDS011;10959;51.328;7.322;2023-03-14T13:23:31;2.43;;;1.33;;
21593;SDS011;10959;51.328;7.322;2023-03-14T13:26:00;4.47;;;1.33;;
21593;SDS011;10959;51.328;7.322;2023-03-14T13:28:28;2.97;;;1.53;;
21593;SDS011;10959;51.328;7.322;2023-03-14T13:30:57;4.13;;;1.60;;
21593;SDS011;10959;51.328;7.322;2023-03-14T13:33:25;3.63;;;1.00;;
21593;SDS011;10959;51.328;7.322;2023-03-14T13:35:54;4.87;;;1.20;;
21593;SDS011;10959;51.328;7.322;2023-03-14T13:38:24;1.63;;;1.07;;
21593;SDS011;10959;51.328;7.322;2023-03-14T13:40:51;3.50;;;1.40;;
21593;SDS011;10959;51.328;7.322;2023-03-14T13:43:25;3.30;;;1.20;;
21593;SDS011;10959;51.328;7.322;2023-03-14T13:45:56;2.30;;;1.30;;
21593;SDS011;10959;51.328;7.322;2023-03-14T13:48:29;7.07;;;2.13;;
21593;SDS011;10959;51.328;7.322;2023-03-14T13:50:58;6.13;;;1.90;;
21593;SDS011;10959;51.328;7.322;2023-03-14T13:53:29;5.13;;;2.23;;
21593;SDS011;10959;51.328;7.322;2023-03-14T13:55:55;7.70;;;2.00;;
21593;SDS011;10959;51.328;7.322;2023-03-14T13:58:23;6.20;;;1.70;;
21593;SDS011;10959;51.328;7.322;2023-03-14T14:00:55;8.47;;;1.80;;
21593;SDS011;10959;51.328;7.322;2023-03-14T14:03:25;5.67;;;1.90;;
21593;SDS011;10959;51.328;7.322;2023-03-14T14:05:54;6.93;;;2.10;;
21593;SDS011;10959;51.328;7.322;2023-03-14T14:08:22;4.87;;;1.60;;
21593;SDS011;10959;51.328;7.322;2023-03-14T14:10:50;6.93;;;1.90;;
21593;SDS011;10959;51.328;7.322;2023-03-14T14:13:23;11.73;;;2.73;;
21593;SDS011;10959;51.328;7.322;2023-03-14T14:15:51;7.27;;;2.20;;
21593;SDS011;10959;51.328;7.322;2023-03-14T14:18:20;9.60;;;2.27;;
21593;SDS011;10959;51.328;7.322;2023-03-14T14:20:51;8.67;;;2.13;;
21593;SDS011;10959;51.328;7.322;2023-03-14T14:23:17;8.87;;;2.20;;
21593;SDS011;10959;51.328;7.322;2023-03-14T14:25:51;6.93;;;1.70;;
21593;SDS011;10959;51.328;7.322;2023-03-14T14:28:21;8.13;;;2.57;;
21593;SDS011;10959;51.328;7.322;2023-03-14T14:30:59;7.80;;;2.47;;
21593;SDS011;10959;51.328;7.322;2023-03-14T14:33:27;8.80;;;2.43;;
21593;SDS011;10959;51.328;7.322;2023-03-14T14:35:54;9.13;;;2.37;;
21593;SDS011;10959;51.328;7.322;2023-03-14T14:38:23;11.50;;;2.70;;
21593;SDS011;10959;51.328;7.322;2023-03-14T14:40:52;8.60;;;2.20;;
21593;SDS011;10959;51.328;7.322;2023-03-14T14:43:22;11.13;;;2.70;;
21593;SDS011;10959;51.328;7.322;2023-03-14T14:45:51;12.40;;;3.43;;
21593;SDS011;10959;51.328;7.322;2023-03-14T14:48:21;6.50;;;2.63;;
21593;SDS011;10959;51.328;7.322;2023-03-14T14:50:49;8.67;;;2.60;;
21593;SDS011;10959;51.328;7.322;2023-03-14T14:53:28;7.70;;;2.30;;
21593;SDS011;10959;51.328;7.322;2023-03-14T14:55:58;9.17;;;3.10;;
21593;SDS011;10959;51.328;7.322;2023-03-14T14:58:30;7.37;;;2.23;;
21593;SDS011;10959;51.328;7.322;2023-03-14T15:01:03;10.97;;;2.57;;
21593;SDS011;10959;51.328;7.322;2023-03-14T15:03:32;9.60;;;3.17;;
21593;SDS011;10959;51.328;7.322;2023-03-14T15:05:59;10.93;;;3.27;;
21593;SDS011;10959;51.328;7.322;2023-03-14T15:08:27;8.77;;;2.87;;
21593;SDS011;10959;51.328;7.322;2023-03-14T15:10:54;12.37;;;3.17;;
21593;SDS011;10959;51.328;7.322;2023-03-14T15:13:22;8.57;;;2.37;;
21593;SDS011;10959;51.328;7.322;2023-03-14T15:15:49;7.63;;;2.93;;